| time (UTC) | temp C | wind direction | speed KPH | gust KPH | rain 1hr cm | rain 24hr cm | rain mn cm | humidity % | barometer mb |
| 20260507211542 | 23 | 165 | 8.0 | 11.3 | 1.09 | 1.09 | 1.09 | 90 | 1014.7 |
| 20260507210033 | 23 | 168 | 8.0 | 14.5 | 0.99 | 0.99 | 0.99 | 90 | 1014.6 |
| 20260507204530 | 24 | 151 | 1.6 | 9.7 | 0.61 | 0.61 | 0.61 | 88 | 1014.9 |
| 20260507203027 | 25 | 184 | 4.8 | 17.7 | 0.00 | 0.00 | 0.00 | 87 | 1014.8 |
| 20260507201527 | 27 | 129 | 6.4 | 14.5 | 0.00 | 0.00 | 0.00 | 85 | 1014.7 |
| 20260507200026 | 28 | 293 | 8.0 | 16.1 | 0.00 | 0.00 | 0.00 | 80 | 1014.6 |
| 20260507194526 | 28 | 330 | 14.5 | 25.7 | 0.00 | 0.00 | 0.00 | 80 | 1014.8 |
| 20260507193027 | 28 | 340 | 16.1 | 27.4 | 0.00 | 0.00 | 0.00 | 80 | 1014.7 |
| 20260507191527 | 28 | 280 | 16.1 | 29.0 | 0.00 | 0.00 | 0.00 | 80 | 1014.6 |
| 20260507190024 | 28 | 300 | 14.5 | 25.7 | 0.00 | 0.00 | 0.00 | 80 | 1014.4 |
| 20260507184522 | 28 | 272 | 19.3 | 33.8 | 0.00 | 0.00 | 0.00 | 79 | 1014.6 |
| 20260507183021 | 28 | 267 | 16.1 | 29.0 | 0.00 | 0.00 | 0.00 | 79 | 1014.7 |
| 20260507181519 | 29 | 342 | 14.5 | 27.4 | 0.00 | 0.00 | 0.00 | 77 | 1015.1 |
| 20260507180021 | 29 | 355 | 14.5 | 24.1 | 0.00 | 0.00 | 0.00 | 79 | 1015.3 |
| 20260507174538 | 28 | 319 | 17.7 | 30.6 | 0.00 | 0.00 | 0.00 | 79 | 1015.3 |
| 20260507173022 | 29 | 294 | 16.1 | 27.4 | 0.00 | 0.00 | 0.00 | 76 | 1015.5 |
| 20260507171519 | 29 | 334 | 14.5 | 22.5 | 0.00 | 0.00 | 0.00 | 74 | 1015.7 |
| 20260507170015 | 30 | 329 | 14.5 | 24.1 | 0.00 | 0.00 | 0.00 | 75 | 1015.9 |
| 20260507164514 | 29 | 309 | 11.3 | 20.9 | 0.00 | 0.00 | 0.00 | 75 | 1015.9 |
| 20260507163019 | 30 | 293 | 8.0 | 22.5 | 0.00 | 0.00 | 0.00 | 74 | 1016.2 |
| 20260507161519 | 30 | 34 | 9.7 | 22.5 | 0.00 | 0.00 | 0.00 | 74 | 1016.4 |
| 20260507160015 | 29 | 324 | 8.0 | 19.3 | 0.00 | 0.00 | 0.00 | 76 | 1016.4 |
| 20260507154517 | 28 | 325 | 14.5 | 22.5 | 0.00 | 0.00 | 0.00 | 76 | 1016.6 |
| 20260507153017 | 29 | 292 | 8.0 | 20.9 | 0.00 | 0.00 | 0.00 | 77 | 1016.6 |
| 20260507151511 | 29 | 5 | 14.5 | 22.5 | 0.00 | 0.00 | 0.00 | 76 | 1016.6 |
| 20260507150010 | 30 | 40 | 3.2 | 8.0 | 0.00 | 0.00 | 0.00 | 73 | 1016.8 |
| 20260507144509 | 29 | 28 | 3.2 | 9.7 | 0.00 | 0.00 | 0.00 | 73 | 1016.9 |
| 20260507143009 | 29 | 269 | 6.4 | 11.3 | 0.00 | 0.00 | 0.00 | 73 | 1016.9 |
| 20260507141508 | 29 | 309 | 8.0 | 14.5 | 0.00 | 0.00 | 0.00 | 72 | 1017.1 |
| 20260507140013 | 30 | 342 | 3.2 | 9.7 | 0.00 | 0.00 | 0.00 | 71 | 1017.0 |
| 20260507134502 | 28 | 5 | 3.2 | 9.7 | 0.00 | 0.00 | 0.00 | 73 | 1017.0 |
| 20260507133107 | 28 | 31 | 4.8 | 12.9 | 0.00 | 0.00 | 0.00 | 75 | 1017.0 |
| 20260507131622 | 28 | 57 | 6.4 | 14.5 | 0.00 | 0.00 | 0.00 | 76 | 1016.8 |
| 20260507130108 | 28 | 40 | 1.6 | 8.0 | 0.00 | 0.00 | 0.00 | 77 | 1016.9 |
| 20260507124603 | 28 | 130 | 1.6 | 9.7 | 0.00 | 0.00 | 0.00 | 76 | 1016.8 |
| 20260507123103 | 28 | 72 | 0.0 | 0.0 | 0.00 | 0.00 | 0.00 | 77 | 1016.6 |
| 20260507121554 | 27 | 135 | 0.0 | 0.0 | 0.00 | 0.00 | 0.00 | 79 | 1016.3 |
| 20260507120048 | 26 | 135 | 1.6 | 4.8 | 0.00 | 0.00 | 0.00 | 79 | 1016.1 |
| 20260507114545 | 26 | 136 | 0.0 | 3.2 | 0.00 | 0.00 | 0.00 | 80 | 1015.8 |
| 20260507113104 | 25 | 113 | 1.6 | 3.2 | 0.00 | 0.00 | 0.00 | 82 | 1015.9 |
| 20260507111539 | 23 | 125 | 4.8 | 11.3 | 0.00 | 0.00 | 0.00 | 84 | 1016.1 |
| 20260507110040 | 22 | 130 | 3.2 | 11.3 | 0.00 | 0.00 | 0.00 | 86 | 1016.1 |
| 20260507104535 | 22 | 111 | 4.8 | 8.0 | 0.00 | 0.00 | 0.00 | 87 | 1016.1 |
| 20260507103032 | 22 | 165 | 3.2 | 9.7 | 0.00 | 0.00 | 0.00 | 86 | 1016.0 |
| 20260507101530 | 22 | 101 | 1.6 | 4.8 | 0.00 | 0.00 | 0.00 | 87 | 1015.9 |
| 20260507100042 | 21 | 112 | 3.2 | 6.4 | 0.00 | 0.00 | 0.00 | 87 | 1015.5 |
| 20260507094529 | 21 | 130 | 1.6 | 6.4 | 0.00 | 0.00 | 0.00 | 87 | 1015.2 |
| 20260507093034 | 22 | 121 | 3.2 | 6.4 | 0.00 | 0.00 | 0.00 | 87 | 1015.2 |
| 20260507091533 | 22 | 137 | 3.2 | 11.3 | 0.00 | 0.00 | 0.00 | 87 | 1015.2 |
| 20260507090024 | 22 | 117 | 4.8 | 9.7 | 0.00 | 0.00 | 0.00 | 86 | 1015.3 |
| 20260507084543 | 22 | 103 | 8.0 | 12.9 | 0.00 | 0.00 | 0.00 | 87 | 1015.3 |
| 20260507083025 | 22 | 126 | 3.2 | 8.0 | 0.00 | 0.00 | 0.00 | 87 | 1015.5 |
| 20260507081521 | 22 | 129 | 0.0 | 9.7 | 0.00 | 0.00 | 0.00 | 86 | 1015.4 |
| 20260507080020 | 22 | 103 | 6.4 | 11.3 | 0.00 | 0.00 | 0.00 | 86 | 1015.4 |
| 20260507074519 | 22 | 127 | 1.6 | 12.9 | 0.00 | 0.00 | 0.00 | 86 | 1015.3 |
| 20260507073023 | 22 | 117 | 3.2 | 9.7 | 0.00 | 0.00 | 0.00 | 87 | 1015.3 |
| 20260507071518 | 22 | 134 | 3.2 | 11.3 | 0.00 | 0.00 | 0.00 | 88 | 1015.5 |
| 20260507070021 | 22 | 131 | 4.8 | 9.7 | 0.00 | 0.00 | 0.00 | 88 | 1015.6 |
| 20260507064513 | 22 | 136 | 3.2 | 9.7 | 0.00 | 0.00 | 0.00 | 88 | 1015.7 |
| 20260507063014 | 22 | 153 | 1.6 | 6.4 | 0.00 | 0.00 | 0.00 | 89 | 1015.8 |
| 20260507061513 | 23 | 135 | 4.8 | 9.7 | 0.00 | 0.00 | 0.00 | 89 | 1016.0 |
| 20260507060011 | 23 | 124 | 3.2 | 9.7 | 0.00 | 0.00 | 0.00 | 89 | 1016.1 |
| 20260507054506 | 23 | 133 | 4.8 | 9.7 | 0.00 | 0.00 | 0.00 | 89 | 1016.5 |
| 20260507053005 | 23 | 134 | 4.8 | 11.3 | 0.00 | 0.00 | 0.00 | 89 | 1016.6 |
| 20260507051503 | 23 | 117 | 6.4 | 11.3 | 0.00 | 0.00 | 0.00 | 89 | 1016.7 |
| 20260507050003 | 23 | 108 | 3.2 | 9.7 | 0.00 | 0.00 | 0.00 | 89 | 1017.0 |
| 20260507044600 | 23 | 140 | 1.6 | 8.0 | 0.00 | 0.00 | 0.00 | 89 | 1017.1 |
| 20260507043055 | 23 | 146 | 3.2 | 6.4 | 0.00 | 0.00 | 0.00 | 89 | 1017.4 |
| 20260507041552 | 24 | 150 | 4.8 | 8.0 | 0.00 | 0.00 | 0.00 | 88 | 1017.6 |
| 20260507040051 | 24 | 116 | 0.0 | 0.0 | 0.00 | 0.00 | 0.00 | 88 | 1017.8 |
| 20260507034549 | 24 | 111 | 0.0 | 0.0 | 0.00 | 0.00 | 0.00 | 88 | 1017.9 |
| 20260507033049 | 25 | 123 | 0.0 | 0.0 | 0.00 | 0.00 | 0.00 | 88 | 1017.8 |
| 20260507031552 | 25 | 123 | 0.0 | 0.0 | 0.00 | 0.00 | 0.00 | 87 | 1017.9 |
| 20260507030048 | 25 | 123 | 0.0 | 4.8 | 0.00 | 0.00 | 0.00 | 87 | 1018.1 |
| 20260507024548 | 25 | 121 | 3.2 | 6.4 | 0.00 | 0.00 | 0.00 | 87 | 1017.9 |
| 20260507023046 | 25 | 119 | 3.2 | 6.4 | 0.00 | 0.00 | 0.00 | 86 | 1017.8 |
| 20260507021556 | 25 | 135 | 3.2 | 4.8 | 0.00 | 0.00 | 0.00 | 87 | 1017.7 |
| 20260507020046 | 25 | 136 | 3.2 | 6.4 | 0.00 | 0.00 | 0.00 | 87 | 1017.7 |
| 20260507014544 | 25 | 117 | 3.2 | 6.4 | 0.00 | 0.00 | 0.00 | 87 | 1017.4 |
| 20260507013044 | 25 | 116 | 0.0 | 4.8 | 0.00 | 0.00 | 0.00 | 86 | 1017.3 |
| 20260507011547 | 25 | 115 | 4.8 | 9.7 | 0.00 | 0.00 | 0.00 | 86 | 1017.0 |
| 20260507010045 | 26 | 111 | 1.6 | 4.8 | 0.00 | 0.00 | 0.00 | 86 | 1017.2 |
| 20260507004542 | 27 | 11 | 3.2 | 4.8 | 0.00 | 0.00 | 0.00 | 85 | 1017.0 |
| 20260507003042 | 27 | 9 | 3.2 | 8.0 | 0.00 | 0.00 | 0.00 | 84 | 1017.0 |
| 20260507001542 | 27 | 5 | 3.2 | 6.4 | 0.00 | 0.00 | 0.00 | 82 | 1016.8 |
| 20260507000041 | 27 | 267 | 1.6 | 6.4 | 0.00 | 0.00 | 0.00 | 82 | 1016.8 |
| 20260506234550 | 27 | 252 | 1.6 | 9.7 | 0.00 | 0.00 | 0.00 | 81 | 1016.6 |
| 20260506233041 | 27 | 272 | 3.2 | 9.7 | 0.00 | 0.00 | 0.00 | 81 | 1016.5 |
| 20260506231540 | 28 | 221 | 3.2 | 11.3 | 0.00 | 0.00 | 0.00 | 80 | 1016.3 |
| 20260506230039 | 28 | 221 | 4.8 | 12.9 | 0.00 | 0.00 | 0.00 | 80 | 1016.0 |
| 20260506224541 | 28 | 183 | 4.8 | 17.7 | 0.00 | 0.00 | 0.00 | 79 | 1015.8 |
| 20260506223037 | 28 | 261 | 9.7 | 14.5 | 0.00 | 0.00 | 0.00 | 79 | 1015.6 |
| 20260506221536 | 28 | 228 | 4.8 | 11.3 | 0.00 | 0.00 | 0.00 | 77 | 1015.5 |
| 20260506220037 | 28 | 290 | 3.2 | 14.5 | 0.00 | 0.00 | 0.00 | 78 | 1015.4 |
| 20260506214535 | 28 | 331 | 1.6 | 12.9 | 0.00 | 0.00 | 0.00 | 78 | 1015.3 |
| 20260506213034 | 28 | 319 | 4.8 | 16.1 | 0.00 | 0.00 | 0.00 | 79 | 1015.2 |